sensor_id;sensor_type;location;lat;lon;timestamp;P1;durP1;ratioP1;P2;durP2;ratioP2
819;SDS011;392;48.838;2.322;2024-03-07T00:00:01;12.07;;;9.83;;
819;SDS011;392;48.838;2.322;2024-03-07T00:02:37;11.30;;;10.20;;
819;SDS011;392;48.838;2.322;2024-03-07T00:05:04;11.80;;;10.60;;
819;SDS011;392;48.838;2.322;2024-03-07T00:07:33;11.90;;;10.43;;
819;SDS011;392;48.838;2.322;2024-03-07T00:10:01;11.00;;;9.90;;
819;SDS011;392;48.838;2.322;2024-03-07T00:12:30;11.40;;;10.33;;
819;SDS011;392;48.838;2.322;2024-03-07T00:14:59;11.30;;;10.20;;
819;SDS011;392;48.838;2.322;2024-03-07T00:17:26;12.20;;;10.97;;
819;SDS011;392;48.838;2.322;2024-03-07T00:19:53;11.93;;;10.67;;
819;SDS011;392;48.838;2.322;2024-03-07T00:22:21;11.10;;;10.10;;
819;SDS011;392;48.838;2.322;2024-03-07T00:24:49;11.87;;;10.67;;
819;SDS011;392;48.838;2.322;2024-03-07T00:27:16;11.17;;;9.97;;
819;SDS011;392;48.838;2.322;2024-03-07T00:29:45;11.80;;;10.60;;
819;SDS011;392;48.838;2.322;2024-03-07T00:32:19;11.37;;;10.27;;
819;SDS011;392;48.838;2.322;2024-03-07T00:34:47;11.00;;;9.90;;
819;SDS011;392;48.838;2.322;2024-03-07T00:37:15;12.00;;;10.83;;
819;SDS011;392;48.838;2.322;2024-03-07T00:39:42;10.70;;;9.60;;
819;SDS011;392;48.838;2.322;2024-03-07T00:42:10;10.70;;;9.70;;
819;SDS011;392;48.838;2.322;2024-03-07T00:44:37;11.10;;;10.17;;
819;SDS011;392;48.838;2.322;2024-03-07T00:47:04;10.80;;;9.70;;
819;SDS011;392;48.838;2.322;2024-03-07T00:49:34;11.00;;;10.10;;
819;SDS011;392;48.838;2.322;2024-03-07T00:52:01;11.40;;;10.20;;
819;SDS011;392;48.838;2.322;2024-03-07T00:54:29;11.00;;;9.90;;
819;SDS011;392;48.838;2.322;2024-03-07T00:56:56;11.10;;;10.00;;
819;SDS011;392;48.838;2.322;2024-03-07T00:59:23;9.93;;;9.00;;
819;SDS011;392;48.838;2.322;2024-03-07T01:01:50;9.73;;;8.73;;
819;SDS011;392;48.838;2.322;2024-03-07T01:04:18;10.40;;;9.33;;
819;SDS011;392;48.838;2.322;2024-03-07T01:06:46;9.80;;;8.87;;
819;SDS011;392;48.838;2.322;2024-03-07T01:09:14;10.63;;;9.73;;
819;SDS011;392;48.838;2.322;2024-03-07T01:11:44;8.93;;;8.13;;
819;SDS011;392;48.838;2.322;2024-03-07T01:14:11;8.87;;;8.07;;
819;SDS011;392;48.838;2.322;2024-03-07T01:16:38;10.23;;;9.23;;
819;SDS011;392;48.838;2.322;2024-03-07T01:19:06;9.37;;;8.50;;
819;SDS011;392;48.838;2.322;2024-03-07T01:21:33;9.23;;;8.40;;
819;SDS011;392;48.838;2.322;2024-03-07T01:24:02;9.30;;;8.30;;
819;SDS011;392;48.838;2.322;2024-03-07T01:26:30;9.70;;;8.80;;
819;SDS011;392;48.838;2.322;2024-03-07T01:28:58;9.23;;;7.77;;
819;SDS011;392;48.838;2.322;2024-03-07T01:31:26;9.33;;;8.33;;
819;SDS011;392;48.838;2.322;2024-03-07T01:33:53;10.13;;;9.10;;
819;SDS011;392;48.838;2.322;2024-03-07T01:36:21;9.27;;;8.47;;
819;SDS011;392;48.838;2.322;2024-03-07T01:38:48;10.00;;;9.10;;
819;SDS011;392;48.838;2.322;2024-03-07T01:41:18;10.60;;;9.60;;
819;SDS011;392;48.838;2.322;2024-03-07T01:43:45;10.27;;;9.27;;
819;SDS011;392;48.838;2.322;2024-03-07T01:46:12;10.00;;;9.10;;
819;SDS011;392;48.838;2.322;2024-03-07T01:48:40;9.43;;;8.20;;
819;SDS011;392;48.838;2.322;2024-03-07T01:51:08;10.40;;;9.33;;
819;SDS011;392;48.838;2.322;2024-03-07T01:53:35;9.27;;;8.47;;
819;SDS011;392;48.838;2.322;2024-03-07T01:56:03;9.77;;;8.87;;
819;SDS011;392;48.838;2.322;2024-03-07T01:58:33;11.10;;;10.10;;
819;SDS011;392;48.838;2.322;2024-03-07T02:01:03;11.27;;;10.17;;
819;SDS011;392;48.838;2.322;2024-03-07T02:03:31;9.80;;;8.80;;
819;SDS011;392;48.838;2.322;2024-03-07T02:05:59;10.07;;;9.17;;
819;SDS011;392;48.838;2.322;2024-03-07T02:08:28;9.80;;;8.80;;
819;SDS011;392;48.838;2.322;2024-03-07T02:10:57;8.83;;;8.07;;
819;SDS011;392;48.838;2.322;2024-03-07T02:13:24;9.50;;;8.60;;
819;SDS011;392;48.838;2.322;2024-03-07T02:15:53;9.60;;;8.70;;
819;SDS011;392;48.838;2.322;2024-03-07T02:18:21;10.00;;;9.10;;
819;SDS011;392;48.838;2.322;2024-03-07T02:20:49;9.33;;;8.43;;
819;SDS011;392;48.838;2.322;2024-03-07T02:23:16;9.57;;;8.67;;
819;SDS011;392;48.838;2.322;2024-03-07T02:25:44;9.27;;;8.47;;
819;SDS011;392;48.838;2.322;2024-03-07T02:28:11;10.37;;;9.47;;
819;SDS011;392;48.838;2.322;2024-03-07T02:30:38;9.70;;;8.70;;
819;SDS011;392;48.838;2.322;2024-03-07T02:33:05;9.80;;;8.80;;
819;SDS011;392;48.838;2.322;2024-03-07T02:35:33;10.00;;;9.00;;
819;SDS011;392;48.838;2.322;2024-03-07T02:38:03;9.57;;;8.67;;
819;SDS011;392;48.838;2.322;2024-03-07T02:40:30;9.20;;;8.30;;
819;SDS011;392;48.838;2.322;2024-03-07T02:42:58;10.00;;;9.10;;
819;SDS011;392;48.838;2.322;2024-03-07T02:45:25;9.47;;;8.47;;
819;SDS011;392;48.838;2.322;2024-03-07T02:47:52;9.03;;;8.13;;
819;SDS011;392;48.838;2.322;2024-03-07T02:50:20;9.10;;;8.30;;
819;SDS011;392;48.838;2.322;2024-03-07T02:52:48;8.10;;;7.33;;
819;SDS011;392;48.838;2.322;2024-03-07T02:55:19;8.60;;;7.80;;
819;SDS011;392;48.838;2.322;2024-03-07T02:57:46;9.70;;;8.30;;
819;SDS011;392;48.838;2.322;2024-03-07T03:00:13;8.50;;;7.70;;
819;SDS011;392;48.838;2.322;2024-03-07T03:02:46;9.10;;;8.23;;
819;SDS011;392;48.838;2.322;2024-03-07T03:05:14;9.00;;;7.90;;
819;SDS011;392;48.838;2.322;2024-03-07T03:07:43;8.17;;;7.40;;
819;SDS011;392;48.838;2.322;2024-03-07T03:10:19;8.83;;;7.63;;
819;SDS011;392;48.838;2.322;2024-03-07T03:12:50;7.93;;;7.13;;
819;SDS011;392;48.838;2.322;2024-03-07T03:15:18;7.70;;;6.93;;
819;SDS011;392;48.838;2.322;2024-03-07T03:17:46;9.07;;;7.90;;
819;SDS011;392;48.838;2.322;2024-03-07T03:20:13;8.33;;;7.53;;
819;SDS011;392;48.838;2.322;2024-03-07T03:22:53;8.37;;;7.47;;
819;SDS011;392;48.838;2.322;2024-03-07T03:25:22;7.40;;;6.70;;
819;SDS011;392;48.838;2.322;2024-03-07T03:27:49;9.33;;;7.93;;
819;SDS011;392;48.838;2.322;2024-03-07T03:30:16;8.07;;;7.27;;
819;SDS011;392;48.838;2.322;2024-03-07T03:32:45;7.40;;;6.70;;
819;SDS011;392;48.838;2.322;2024-03-07T03:35:13;8.03;;;7.30;;
819;SDS011;392;48.838;2.322;2024-03-07T03:37:41;8.40;;;7.57;;
819;SDS011;392;48.838;2.322;2024-03-07T03:40:08;8.17;;;7.37;;
819;SDS011;392;48.838;2.322;2024-03-07T03:42:40;8.33;;;7.47;;
819;SDS011;392;48.838;2.322;2024-03-07T03:45:09;8.10;;;7.30;;
819;SDS011;392;48.838;2.322;2024-03-07T03:47:40;7.63;;;6.93;;
819;SDS011;392;48.838;2.322;2024-03-07T03:50:08;8.20;;;7.50;;
819;SDS011;392;48.838;2.322;2024-03-07T03:52:38;8.77;;;7.10;;
819;SDS011;392;48.838;2.322;2024-03-07T03:55:06;7.90;;;7.20;;
819;SDS011;392;48.838;2.322;2024-03-07T03:57:35;8.33;;;7.57;;
819;SDS011;392;48.838;2.322;2024-03-07T04:00:06;8.57;;;7.77;;
819;SDS011;392;48.838;2.322;2024-03-07T04:02:38;8.67;;;7.90;;
819;SDS011;392;48.838;2.322;2024-03-07T04:05:06;8.43;;;7.63;;
819;SDS011;392;48.838;2.322;2024-03-07T04:07:35;8.53;;;7.73;;
819;SDS011;392;48.838;2.322;2024-03-07T04:10:04;8.63;;;7.73;;
819;SDS011;392;48.838;2.322;2024-03-07T04:12:33;8.77;;;7.50;;
819;SDS011;392;48.838;2.322;2024-03-07T04:15:00;8.60;;;7.80;;
819;SDS011;392;48.838;2.322;2024-03-07T04:17:30;8.10;;;7.30;;
819;SDS011;392;48.838;2.322;2024-03-07T04:19:59;8.83;;;7.93;;
819;SDS011;392;48.838;2.322;2024-03-07T04:22:27;7.77;;;6.97;;
819;SDS011;392;48.838;2.322;2024-03-07T04:24:54;8.40;;;7.57;;
819;SDS011;392;48.838;2.322;2024-03-07T04:27:21;8.23;;;7.53;;
819;SDS011;392;48.838;2.322;2024-03-07T04:29:48;8.57;;;7.77;;
819;SDS011;392;48.838;2.322;2024-03-07T04:32:15;8.43;;;7.53;;
819;SDS011;392;48.838;2.322;2024-03-07T04:34:44;10.53;;;8.50;;
819;SDS011;392;48.838;2.322;2024-03-07T04:37:12;7.53;;;6.83;;
819;SDS011;392;48.838;2.322;2024-03-07T04:39:39;8.40;;;7.60;;
819;SDS011;392;48.838;2.322;2024-03-07T04:42:07;8.03;;;7.33;;
819;SDS011;392;48.838;2.322;2024-03-07T04:44:35;7.90;;;7.20;;
819;SDS011;392;48.838;2.322;2024-03-07T04:47:04;7.67;;;6.97;;
819;SDS011;392;48.838;2.322;2024-03-07T04:49:32;8.20;;;7.40;;
819;SDS011;392;48.838;2.322;2024-03-07T04:52:02;8.47;;;7.70;;
819;SDS011;392;48.838;2.322;2024-03-07T04:54:31;8.37;;;7.57;;
819;SDS011;392;48.838;2.322;2024-03-07T04:56:59;9.10;;;6.77;;
819;SDS011;392;48.838;2.322;2024-03-07T04:59:26;7.77;;;7.10;;
819;SDS011;392;48.838;2.322;2024-03-07T05:01:54;8.00;;;7.20;;
819;SDS011;392;48.838;2.322;2024-03-07T05:04:21;7.67;;;6.87;;
819;SDS011;392;48.838;2.322;2024-03-07T05:06:54;7.50;;;6.80;;
819;SDS011;392;48.838;2.322;2024-03-07T05:09:24;7.60;;;6.90;;
819;SDS011;392;48.838;2.322;2024-03-07T05:11:54;9.00;;;8.20;;
819;SDS011;392;48.838;2.322;2024-03-07T05:14:21;8.53;;;7.63;;
819;SDS011;392;48.838;2.322;2024-03-07T05:16:50;8.03;;;7.33;;
819;SDS011;392;48.838;2.322;2024-03-07T05:19:30;8.07;;;7.27;;
819;SDS011;392;48.838;2.322;2024-03-07T05:21:58;8.73;;;7.87;;
819;SDS011;392;48.838;2.322;2024-03-07T05:24:27;9.03;;;8.33;;
819;SDS011;392;48.838;2.322;2024-03-07T05:26:54;9.50;;;8.60;;
819;SDS011;392;48.838;2.322;2024-03-07T05:29:22;9.60;;;8.60;;
819;SDS011;392;48.838;2.322;2024-03-07T05:31:49;9.37;;;8.47;;
819;SDS011;392;48.838;2.322;2024-03-07T05:34:17;8.37;;;7.53;;
819;SDS011;392;48.838;2.322;2024-03-07T05:36:45;8.93;;;8.13;;
819;SDS011;392;48.838;2.322;2024-03-07T05:39:13;9.37;;;8.47;;
819;SDS011;392;48.838;2.322;2024-03-07T05:41:43;9.27;;;8.30;;
819;SDS011;392;48.838;2.322;2024-03-07T05:44:11;9.07;;;8.27;;
819;SDS011;392;48.838;2.322;2024-03-07T05:46:39;9.03;;;8.30;;
819;SDS011;392;48.838;2.322;2024-03-07T05:49:11;8.43;;;7.63;;
819;SDS011;392;48.838;2.322;2024-03-07T05:51:38;8.23;;;7.50;;
819;SDS011;392;48.838;2.322;2024-03-07T05:54:07;8.27;;;7.47;;
819;SDS011;392;48.838;2.322;2024-03-07T05:56:34;9.03;;;8.13;;
819;SDS011;392;48.838;2.322;2024-03-07T05:59:03;8.63;;;7.83;;
819;SDS011;392;48.838;2.322;2024-03-07T06:01:32;8.60;;;7.70;;
819;SDS011;392;48.838;2.322;2024-03-07T06:04:00;8.87;;;7.87;;
819;SDS011;392;48.838;2.322;2024-03-07T06:06:28;7.90;;;7.20;;
819;SDS011;392;48.838;2.322;2024-03-07T06:08:57;7.70;;;6.93;;
819;SDS011;392;48.838;2.322;2024-03-07T06:11:24;7.10;;;6.40;;
819;SDS011;392;48.838;2.322;2024-03-07T06:13:51;8.23;;;6.90;;
819;SDS011;392;48.838;2.322;2024-03-07T06:16:20;7.63;;;6.97;;
819;SDS011;392;48.838;2.322;2024-03-07T06:18:47;7.77;;;6.93;;
819;SDS011;392;48.838;2.322;2024-03-07T06:21:15;7.30;;;6.70;;
819;SDS011;392;48.838;2.322;2024-03-07T06:23:42;7.20;;;6.53;;
819;SDS011;392;48.838;2.322;2024-03-07T06:26:12;6.77;;;6.17;;
819;SDS011;392;48.838;2.322;2024-03-07T06:28:42;7.93;;;7.23;;
819;SDS011;392;48.838;2.322;2024-03-07T06:31:10;7.20;;;6.50;;
819;SDS011;392;48.838;2.322;2024-03-07T06:33:39;7.97;;;6.87;;
819;SDS011;392;48.838;2.322;2024-03-07T06:36:06;7.60;;;6.90;;
819;SDS011;392;48.838;2.322;2024-03-07T06:38:34;7.80;;;7.10;;
819;SDS011;392;48.838;2.322;2024-03-07T06:41:01;7.87;;;7.17;;
819;SDS011;392;48.838;2.322;2024-03-07T06:43:30;8.37;;;7.53;;
819;SDS011;392;48.838;2.322;2024-03-07T06:45:57;7.67;;;6.97;;
819;SDS011;392;48.838;2.322;2024-03-07T06:48:24;8.00;;;7.13;;
819;SDS011;392;48.838;2.322;2024-03-07T06:50:53;7.27;;;6.57;;
819;SDS011;392;48.838;2.322;2024-03-07T06:53:20;7.73;;;6.73;;
819;SDS011;392;48.838;2.322;2024-03-07T06:55:51;7.47;;;6.77;;
819;SDS011;392;48.838;2.322;2024-03-07T06:58:18;7.53;;;6.90;;
819;SDS011;392;48.838;2.322;2024-03-07T07:00:48;9.40;;;7.23;;
819;SDS011;392;48.838;2.322;2024-03-07T07:03:17;8.77;;;6.80;;
819;SDS011;392;48.838;2.322;2024-03-07T07:05:45;9.37;;;7.23;;
819;SDS011;392;48.838;2.322;2024-03-07T07:08:14;8.50;;;7.43;;
819;SDS011;392;48.838;2.322;2024-03-07T07:10:41;7.10;;;6.50;;
819;SDS011;392;48.838;2.322;2024-03-07T07:13:09;8.00;;;7.27;;
819;SDS011;392;48.838;2.322;2024-03-07T07:15:36;7.63;;;6.93;;
819;SDS011;392;48.838;2.322;2024-03-07T07:18:03;8.53;;;7.43;;
819;SDS011;392;48.838;2.322;2024-03-07T07:20:32;8.03;;;7.33;;
819;SDS011;392;48.838;2.322;2024-03-07T07:23:00;7.80;;;7.00;;
819;SDS011;392;48.838;2.322;2024-03-07T07:25:30;9.17;;;7.60;;
819;SDS011;392;48.838;2.322;2024-03-07T07:27:57;8.17;;;7.37;;
819;SDS011;392;48.838;2.322;2024-03-07T07:30:25;8.70;;;7.80;;
819;SDS011;392;48.838;2.322;2024-03-07T07:32:53;8.90;;;7.17;;
819;SDS011;392;48.838;2.322;2024-03-07T07:35:20;8.50;;;7.40;;
819;SDS011;392;48.838;2.322;2024-03-07T07:37:48;9.17;;;8.37;;
819;SDS011;392;48.838;2.322;2024-03-07T07:40:19;8.30;;;7.30;;
819;SDS011;392;48.838;2.322;2024-03-07T07:42:49;8.90;;;8.10;;
819;SDS011;392;48.838;2.322;2024-03-07T07:45:19;8.47;;;7.70;;
819;SDS011;392;48.838;2.322;2024-03-07T07:47:47;8.53;;;7.63;;
819;SDS011;392;48.838;2.322;2024-03-07T07:50:17;8.13;;;7.30;;
819;SDS011;392;48.838;2.322;2024-03-07T07:52:47;8.63;;;7.30;;
819;SDS011;392;48.838;2.322;2024-03-07T07:55:16;7.80;;;7.00;;
819;SDS011;392;48.838;2.322;2024-03-07T07:57:45;11.40;;;9.20;;
819;SDS011;392;48.838;2.322;2024-03-07T08:00:18;8.40;;;7.60;;
819;SDS011;392;48.838;2.322;2024-03-07T08:02:54;10.33;;;8.30;;
819;SDS011;392;48.838;2.322;2024-03-07T08:05:23;8.03;;;7.33;;
819;SDS011;392;48.838;2.322;2024-03-07T08:07:53;8.17;;;7.37;;
819;SDS011;392;48.838;2.322;2024-03-07T08:10:23;8.87;;;7.97;;
819;SDS011;392;48.838;2.322;2024-03-07T08:12:55;8.70;;;8.00;;
819;SDS011;392;48.838;2.322;2024-03-07T08:15:24;8.83;;;7.93;;
819;SDS011;392;48.838;2.322;2024-03-07T08:17:53;8.73;;;7.80;;
819;SDS011;392;48.838;2.322;2024-03-07T08:20:21;8.67;;;7.87;;
819;SDS011;392;48.838;2.322;2024-03-07T08:22:51;9.33;;;8.50;;
819;SDS011;392;48.838;2.322;2024-03-07T08:25:20;9.00;;;8.13;;
819;SDS011;392;48.838;2.322;2024-03-07T08:27:49;8.70;;;7.90;;
819;SDS011;392;48.838;2.322;2024-03-07T08:30:20;9.30;;;7.80;;
819;SDS011;392;48.838;2.322;2024-03-07T08:32:48;9.43;;;8.53;;
819;SDS011;392;48.838;2.322;2024-03-07T08:35:18;9.17;;;8.30;;
819;SDS011;392;48.838;2.322;2024-03-07T08:37:46;9.80;;;8.90;;
819;SDS011;392;48.838;2.322;2024-03-07T08:40:14;9.23;;;8.37;;
819;SDS011;392;48.838;2.322;2024-03-07T08:42:46;9.87;;;8.43;;
819;SDS011;392;48.838;2.322;2024-03-07T08:45:15;9.87;;;8.37;;
819;SDS011;392;48.838;2.322;2024-03-07T08:47:45;9.20;;;8.33;;
819;SDS011;392;48.838;2.322;2024-03-07T08:50:14;10.30;;;7.83;;
819;SDS011;392;48.838;2.322;2024-03-07T08:52:43;8.47;;;7.67;;
819;SDS011;392;48.838;2.322;2024-03-07T08:55:12;8.07;;;7.37;;
819;SDS011;392;48.838;2.322;2024-03-07T08:57:40;8.37;;;7.57;;
819;SDS011;392;48.838;2.322;2024-03-07T09:00:09;7.97;;;7.30;;
819;SDS011;392;48.838;2.322;2024-03-07T09:02:41;7.87;;;7.10;;
819;SDS011;392;48.838;2.322;2024-03-07T09:05:10;7.07;;;6.47;;
819;SDS011;392;48.838;2.322;2024-03-07T09:07:37;7.67;;;7.00;;
819;SDS011;392;48.838;2.322;2024-03-07T09:10:05;8.20;;;7.33;;
819;SDS011;392;48.838;2.322;2024-03-07T09:12:34;8.47;;;7.67;;
819;SDS011;392;48.838;2.322;2024-03-07T09:15:02;10.50;;;8.20;;
819;SDS011;392;48.838;2.322;2024-03-07T09:17:30;8.77;;;7.87;;
819;SDS011;392;48.838;2.322;2024-03-07T09:19:57;9.07;;;8.17;;
819;SDS011;392;48.838;2.322;2024-03-07T09:22:26;9.40;;;7.70;;
819;SDS011;392;48.838;2.322;2024-03-07T09:24:54;7.00;;;6.30;;
819;SDS011;392;48.838;2.322;2024-03-07T09:27:22;7.53;;;6.70;;
819;SDS011;392;48.838;2.322;2024-03-07T09:29:49;8.07;;;7.30;;
819;SDS011;392;48.838;2.322;2024-03-07T09:32:16;8.10;;;7.33;;
819;SDS011;392;48.838;2.322;2024-03-07T09:34:47;7.40;;;6.60;;
819;SDS011;392;48.838;2.322;2024-03-07T09:37:13;8.17;;;7.47;;
819;SDS011;392;48.838;2.322;2024-03-07T09:39:42;8.60;;;7.70;;
819;SDS011;392;48.838;2.322;2024-03-07T09:42:09;9.07;;;8.20;;
819;SDS011;392;48.838;2.322;2024-03-07T09:44:38;9.33;;;8.43;;
819;SDS011;392;48.838;2.322;2024-03-07T09:47:08;9.00;;;8.10;;
819;SDS011;392;48.838;2.322;2024-03-07T09:49:36;9.87;;;8.70;;
819;SDS011;392;48.838;2.322;2024-03-07T09:52:05;9.40;;;8.47;;
819;SDS011;392;48.838;2.322;2024-03-07T09:54:37;9.43;;;8.60;;
819;SDS011;392;48.838;2.322;2024-03-07T09:57:07;9.40;;;8.10;;
819;SDS011;392;48.838;2.322;2024-03-07T09:59:34;10.07;;;9.07;;
819;SDS011;392;48.838;2.322;2024-03-07T10:02:04;9.63;;;8.67;;
819;SDS011;392;48.838;2.322;2024-03-07T10:04:37;10.27;;;9.23;;
819;SDS011;392;48.838;2.322;2024-03-07T10:07:06;10.03;;;9.13;;
819;SDS011;392;48.838;2.322;2024-03-07T10:09:36;10.00;;;9.10;;
819;SDS011;392;48.838;2.322;2024-03-07T10:12:07;10.67;;;9.67;;
819;SDS011;392;48.838;2.322;2024-03-07T10:14:37;10.63;;;9.53;;
819;SDS011;392;48.838;2.322;2024-03-07T10:17:05;11.77;;;10.17;;
819;SDS011;392;48.838;2.322;2024-03-07T10:19:35;11.27;;;10.17;;
819;SDS011;392;48.838;2.322;2024-03-07T10:22:02;10.53;;;9.53;;
819;SDS011;392;48.838;2.322;2024-03-07T10:24:31;10.70;;;9.60;;
819;SDS011;392;48.838;2.322;2024-03-07T10:27:00;11.03;;;10.03;;
819;SDS011;392;48.838;2.322;2024-03-07T10:29:28;10.73;;;9.73;;
819;SDS011;392;48.838;2.322;2024-03-07T10:31:55;11.73;;;10.67;;
819;SDS011;392;48.838;2.322;2024-03-07T10:34:23;13.00;;;11.70;;
819;SDS011;392;48.838;2.322;2024-03-07T10:36:50;12.20;;;11.00;;
819;SDS011;392;48.838;2.322;2024-03-07T10:39:19;13.03;;;11.67;;
819;SDS011;392;48.838;2.322;2024-03-07T10:41:48;12.13;;;10.97;;
819;SDS011;392;48.838;2.322;2024-03-07T10:44:18;12.57;;;11.37;;
819;SDS011;392;48.838;2.322;2024-03-07T10:46:51;12.80;;;11.70;;
819;SDS011;392;48.838;2.322;2024-03-07T10:49:20;13.47;;;12.23;;
819;SDS011;392;48.838;2.322;2024-03-07T10:51:54;11.53;;;10.43;;
819;SDS011;392;48.838;2.322;2024-03-07T10:54:31;12.50;;;11.33;;
819;SDS011;392;48.838;2.322;2024-03-07T10:57:15;13.40;;;12.10;;
819;SDS011;392;48.838;2.322;2024-03-07T10:59:49;12.77;;;11.57;;
819;SDS011;392;48.838;2.322;2024-03-07T11:02:27;13.97;;;12.47;;
819;SDS011;392;48.838;2.322;2024-03-07T11:05:06;13.90;;;12.40;;
819;SDS011;392;48.838;2.322;2024-03-07T11:07:37;13.90;;;12.30;;
819;SDS011;392;48.838;2.322;2024-03-07T11:10:05;15.97;;;12.60;;
819;SDS011;392;48.838;2.322;2024-03-07T11:12:37;13.93;;;12.43;;
819;SDS011;392;48.838;2.322;2024-03-07T11:15:06;15.60;;;13.33;;
819;SDS011;392;48.838;2.322;2024-03-07T11:17:41;14.80;;;10.87;;
819;SDS011;392;48.838;2.322;2024-03-07T11:20:19;14.80;;;12.73;;
819;SDS011;392;48.838;2.322;2024-03-07T11:22:48;15.07;;;13.13;;
819;SDS011;392;48.838;2.322;2024-03-07T11:25:17;15.63;;;12.70;;
819;SDS011;392;48.838;2.322;2024-03-07T11:27:51;16.00;;;13.73;;
819;SDS011;392;48.838;2.322;2024-03-07T11:30:19;15.70;;;12.47;;
819;SDS011;392;48.838;2.322;2024-03-07T11:32:49;15.40;;;13.30;;
819;SDS011;392;48.838;2.322;2024-03-07T11:35:18;15.57;;;13.90;;
819;SDS011;392;48.838;2.322;2024-03-07T11:37:56;16.97;;;14.67;;
819;SDS011;392;48.838;2.322;2024-03-07T11:40:43;16.70;;;13.90;;
819;SDS011;392;48.838;2.322;2024-03-07T11:43:12;17.70;;;14.60;;
819;SDS011;392;48.838;2.322;2024-03-07T11:45:39;17.00;;;14.13;;
819;SDS011;392;48.838;2.322;2024-03-07T11:48:11;16.77;;;15.07;;
819;SDS011;392;48.838;2.322;2024-03-07T11:50:41;16.97;;;15.27;;
819;SDS011;392;48.838;2.322;2024-03-07T11:53:08;17.03;;;15.27;;
819;SDS011;392;48.838;2.322;2024-03-07T11:55:37;17.17;;;15.27;;
819;SDS011;392;48.838;2.322;2024-03-07T11:58:11;17.40;;;15.70;;
819;SDS011;392;48.838;2.322;2024-03-07T12:00:41;17.43;;;15.63;;
819;SDS011;392;48.838;2.322;2024-03-07T12:03:12;17.57;;;15.97;;
819;SDS011;392;48.838;2.322;2024-03-07T12:05:42;17.93;;;16.23;;
819;SDS011;392;48.838;2.322;2024-03-07T12:08:10;17.77;;;15.97;;
819;SDS011;392;48.838;2.322;2024-03-07T12:10:37;19.60;;;17.70;;
819;SDS011;392;48.838;2.322;2024-03-07T12:13:09;17.30;;;15.70;;
819;SDS011;392;48.838;2.322;2024-03-07T12:15:38;18.90;;;16.97;;
819;SDS011;392;48.838;2.322;2024-03-07T12:18:06;18.87;;;17.17;;
819;SDS011;392;48.838;2.322;2024-03-07T12:20:37;19.57;;;17.83;;
819;SDS011;392;48.838;2.322;2024-03-07T12:23:06;20.13;;;18.30;;
819;SDS011;392;48.838;2.322;2024-03-07T12:25:34;19.67;;;17.87;;
819;SDS011;392;48.838;2.322;2024-03-07T12:28:03;18.53;;;16.83;;
819;SDS011;392;48.838;2.322;2024-03-07T12:30:37;19.20;;;17.60;;
819;SDS011;392;48.838;2.322;2024-03-07T12:33:16;20.07;;;18.27;;
819;SDS011;392;48.838;2.322;2024-03-07T12:35:46;19.93;;;18.23;;
819;SDS011;392;48.838;2.322;2024-03-07T12:38:15;18.40;;;16.90;;
819;SDS011;392;48.838;2.322;2024-03-07T12:40:42;20.10;;;18.30;;
819;SDS011;392;48.838;2.322;2024-03-07T12:43:14;20.73;;;18.87;;
819;SDS011;392;48.838;2.322;2024-03-07T12:45:44;21.30;;;19.40;;
819;SDS011;392;48.838;2.322;2024-03-07T12:48:14;19.87;;;18.27;;
819;SDS011;392;48.838;2.322;2024-03-07T12:50:42;20.70;;;18.80;;
819;SDS011;392;48.838;2.322;2024-03-07T12:53:18;20.63;;;18.80;;
819;SDS011;392;48.838;2.322;2024-03-07T12:55:47;22.60;;;20.70;;
819;SDS011;392;48.838;2.322;2024-03-07T12:58:15;22.80;;;20.80;;
819;SDS011;392;48.838;2.322;2024-03-07T13:00:43;21.40;;;19.60;;
819;SDS011;392;48.838;2.322;2024-03-07T13:03:10;19.60;;;17.97;;
819;SDS011;392;48.838;2.322;2024-03-07T13:05:40;19.57;;;17.87;;
819;SDS011;392;48.838;2.322;2024-03-07T13:08:09;19.80;;;18.10;;
819;SDS011;392;48.838;2.322;2024-03-07T13:10:38;18.20;;;16.60;;
819;SDS011;392;48.838;2.322;2024-03-07T13:13:06;19.43;;;17.63;;
819;SDS011;392;48.838;2.322;2024-03-07T13:15:34;18.70;;;17.03;;
819;SDS011;392;48.838;2.322;2024-03-07T13:18:04;18.07;;;16.37;;
819;SDS011;392;48.838;2.322;2024-03-07T13:20:32;17.13;;;15.43;;
819;SDS011;392;48.838;2.322;2024-03-07T13:22:59;16.97;;;15.47;;
819;SDS011;392;48.838;2.322;2024-03-07T13:25:28;19.60;;;17.80;;
819;SDS011;392;48.838;2.322;2024-03-07T13:27:59;18.67;;;16.97;;
819;SDS011;392;48.838;2.322;2024-03-07T13:30:29;19.67;;;17.80;;
819;SDS011;392;48.838;2.322;2024-03-07T13:32:58;17.20;;;15.70;;
819;SDS011;392;48.838;2.322;2024-03-07T13:35:26;18.43;;;16.50;;
819;SDS011;392;48.838;2.322;2024-03-07T13:37:53;16.90;;;15.30;;
819;SDS011;392;48.838;2.322;2024-03-07T13:40:21;18.17;;;16.60;;
819;SDS011;392;48.838;2.322;2024-03-07T13:42:54;19.83;;;18.03;;
819;SDS011;392;48.838;2.322;2024-03-07T13:45:24;18.10;;;16.50;;
819;SDS011;392;48.838;2.322;2024-03-07T13:47:52;17.07;;;15.57;;
819;SDS011;392;48.838;2.322;2024-03-07T13:50:22;16.97;;;15.40;;
819;SDS011;392;48.838;2.322;2024-03-07T13:52:54;16.30;;;14.70;;
819;SDS011;392;48.838;2.322;2024-03-07T13:55:53;16.03;;;14.63;;
819;SDS011;392;48.838;2.322;2024-03-07T13:58:43;15.30;;;13.90;;
819;SDS011;392;48.838;2.322;2024-03-07T14:01:37;15.17;;;13.77;;
819;SDS011;392;48.838;2.322;2024-03-07T14:04:25;16.43;;;14.83;;
819;SDS011;392;48.838;2.322;2024-03-07T14:07:32;15.30;;;14.00;;
819;SDS011;392;48.838;2.322;2024-03-07T14:10:27;15.93;;;14.53;;
819;SDS011;392;48.838;2.322;2024-03-07T14:13:31;15.40;;;14.07;;
819;SDS011;392;48.838;2.322;2024-03-07T14:23:10;16.50;;;14.90;;
819;SDS011;392;48.838;2.322;2024-03-07T14:25:51;17.60;;;14.97;;
819;SDS011;392;48.838;2.322;2024-03-07T14:28:50;16.17;;;14.27;;
819;SDS011;392;48.838;2.322;2024-03-07T14:31:31;16.20;;;14.60;;
819;SDS011;392;48.838;2.322;2024-03-07T14:34:03;16.03;;;14.43;;
819;SDS011;392;48.838;2.322;2024-03-07T14:36:37;16.73;;;14.40;;
819;SDS011;392;48.838;2.322;2024-03-07T14:39:10;16.60;;;15.00;;
819;SDS011;392;48.838;2.322;2024-03-07T14:41:41;18.10;;;14.53;;
819;SDS011;392;48.838;2.322;2024-03-07T14:44:16;15.63;;;14.13;;
819;SDS011;392;48.838;2.322;2024-03-07T14:46:46;15.20;;;13.07;;
819;SDS011;392;48.838;2.322;2024-03-07T14:49:18;14.50;;;13.10;;
819;SDS011;392;48.838;2.322;2024-03-07T14:51:48;14.73;;;13.23;;
819;SDS011;392;48.838;2.322;2024-03-07T14:54:19;14.53;;;13.07;;
819;SDS011;392;48.838;2.322;2024-03-07T14:56:46;14.90;;;13.40;;
819;SDS011;392;48.838;2.322;2024-03-07T14:59:13;14.90;;;13.40;;
819;SDS011;392;48.838;2.322;2024-03-07T15:01:44;15.27;;;12.60;;
819;SDS011;392;48.838;2.322;2024-03-07T15:04:12;16.10;;;14.40;;
819;SDS011;392;48.838;2.322;2024-03-07T15:06:41;15.67;;;14.03;;
819;SDS011;392;48.838;2.322;2024-03-07T15:09:09;14.53;;;13.17;;
819;SDS011;392;48.838;2.322;2024-03-07T15:11:38;13.47;;;12.17;;
819;SDS011;392;48.838;2.322;2024-03-07T15:14:06;15.73;;;13.70;;
819;SDS011;392;48.838;2.322;2024-03-07T15:16:34;15.50;;;13.90;;
819;SDS011;392;48.838;2.322;2024-03-07T15:19:04;15.10;;;13.60;;
819;SDS011;392;48.838;2.322;2024-03-07T15:21:32;17.93;;;14.07;;
819;SDS011;392;48.838;2.322;2024-03-07T15:23:59;17.13;;;13.90;;
819;SDS011;392;48.838;2.322;2024-03-07T15:26:29;17.10;;;14.80;;
819;SDS011;392;48.838;2.322;2024-03-07T15:28:57;16.70;;;14.87;;
819;SDS011;392;48.838;2.322;2024-03-07T15:31:25;15.23;;;13.63;;
819;SDS011;392;48.838;2.322;2024-03-07T15:33:53;16.60;;;14.70;;
819;SDS011;392;48.838;2.322;2024-03-07T15:36:21;16.63;;;14.83;;
819;SDS011;392;48.838;2.322;2024-03-07T15:38:50;17.73;;;13.50;;
819;SDS011;392;48.838;2.322;2024-03-07T15:41:18;17.37;;;15.47;;
819;SDS011;392;48.838;2.322;2024-03-07T15:43:45;20.17;;;17.03;;
819;SDS011;392;48.838;2.322;2024-03-07T15:46:13;16.97;;;15.17;;
819;SDS011;392;48.838;2.322;2024-03-07T15:48:41;16.70;;;15.07;;
819;SDS011;392;48.838;2.322;2024-03-07T15:51:12;19.93;;;14.40;;
819;SDS011;392;48.838;2.322;2024-03-07T15:53:41;18.30;;;15.40;;